createdAt,value
2017-09-15T00:00:00.832Z,95154.98
2017-09-15T00:02:28.412Z,95158.81
2017-09-15T00:04:55.922Z,95156.36
2017-09-15T00:07:23.488Z,95144.05
2017-09-15T00:09:51.084Z,95152.63
2017-09-15T00:12:18.628Z,95150.64
2017-09-15T00:14:46.190Z,95149.05
2017-09-15T00:17:13.818Z,95154.05
2017-09-15T00:19:41.404Z,95158.34
2017-09-15T00:22:08.952Z,95157.77
2017-09-15T00:24:36.527Z,95148.58
2017-09-15T00:27:04.063Z,95148.38
2017-09-15T00:29:31.667Z,95162.06
2017-09-15T00:31:59.621Z,95158.48
2017-09-15T00:34:27.143Z,95144.81
2017-09-15T00:36:54.676Z,95149.11
2017-09-15T00:39:22.307Z,95146.95
2017-09-15T00:41:49.858Z,95143.30
2017-09-15T00:44:17.418Z,95147.87
2017-09-15T00:46:45.055Z,95148.21
2017-09-15T00:49:12.600Z,95151.86
2017-09-15T00:51:40.205Z,95145.48
2017-09-15T00:54:07.789Z,95144.33
2017-09-15T00:56:35.337Z,95158.80
2017-09-15T00:59:03.267Z,95153.31
2017-09-15T01:01:30.857Z,95148.81
2017-09-15T01:03:58.462Z,95152.34
2017-09-15T01:06:26.029Z,95159.25
2017-09-15T01:08:53.606Z,95161.22
2017-09-15T01:11:21.177Z,95165.75
2017-09-15T01:13:48.710Z,95163.58
2017-09-15T01:16:16.496Z,95157.70
2017-09-15T01:18:44.075Z,95164.63
2017-09-15T01:21:11.748Z,95171.63
2017-09-15T01:23:39.371Z,95175.34
2017-09-15T01:26:06.921Z,95172.22
2017-09-15T01:28:34.495Z,95182.64
2017-09-15T01:31:02.077Z,95179.94
2017-09-15T01:33:29.652Z,95175.30
2017-09-15T01:35:57.213Z,95177.83
2017-09-15T01:38:24.800Z,95183.49
2017-09-15T01:40:52.386Z,95178.93
2017-09-15T01:43:19.908Z,95178.56
2017-09-15T01:45:47.498Z,95187.62
2017-09-15T01:48:15.041Z,95180.17
2017-09-15T01:50:42.566Z,95185.69
2017-09-15T01:53:10.118Z,95183.91
2017-09-15T01:55:37.636Z,95186.44
2017-09-15T01:58:05.217Z,95179.55
2017-09-15T02:00:32.830Z,95186.28
2017-09-15T02:03:00.416Z,95192.53
2017-09-15T02:05:28.850Z,95183.72
2017-09-15T02:07:56.438Z,95186.10
2017-09-15T02:10:24.033Z,95185.92
2017-09-15T02:12:51.581Z,95189.43
2017-09-15T02:15:19.175Z,95190.02
2017-09-15T02:17:47.021Z,95195.91
2017-09-15T02:20:14.634Z,95188.66
2017-09-15T02:22:42.209Z,95192.39
2017-09-15T02:25:09.950Z,95192.19
2017-09-15T02:27:37.470Z,95196.09
2017-09-15T02:30:06.363Z,95192.77
2017-09-15T02:32:34.128Z,95199.81
2017-09-15T02:35:01.660Z,95202.36
2017-09-15T02:37:29.295Z,95200.00
2017-09-15T02:39:56.897Z,95200.00
2017-09-15T02:42:24.479Z,95205.69
2017-09-15T02:44:52.070Z,95200.39
2017-09-15T02:47:19.675Z,95204.88
2017-09-15T02:49:47.242Z,95199.81
2017-09-15T02:52:14.908Z,95208.41
2017-09-15T02:54:42.461Z,95209.19
2017-09-15T02:57:10.039Z,95222.70
2017-09-15T02:59:37.615Z,95219.17
2017-09-15T03:02:05.227Z,95217.79
2017-09-15T03:04:32.742Z,95215.45
2017-09-15T03:07:00.508Z,95215.27
2017-09-15T03:09:28.074Z,95224.45
2017-09-15T03:11:55.598Z,95224.63
2017-09-15T03:14:23.133Z,95230.70
2017-09-15T03:16:50.749Z,95229.91
2017-09-15T03:19:18.334Z,95239.48
2017-09-15T03:21:45.938Z,95237.14
2017-09-15T03:24:13.544Z,95240.47
2017-09-15T03:26:41.113Z,95244.98
2017-09-15T03:29:08.633Z,95244.57
2017-09-15T03:31:36.219Z,95244.33
2017-09-15T03:34:04.025Z,95241.39
2017-09-15T03:36:31.553Z,95221.84
2017-09-15T03:38:59.140Z,95234.13
2017-09-15T03:41:26.708Z,95235.48
2017-09-15T03:43:54.291Z,95234.31
2017-09-15T03:46:21.908Z,95235.50
2017-09-15T03:48:49.464Z,95236.66
2017-09-15T03:51:17.062Z,95242.32
2017-09-15T03:53:44.674Z,95247.95
2017-09-15T03:56:12.207Z,95252.23
2017-09-15T03:58:39.731Z,95246.98
2017-09-15T04:01:07.296Z,95255.73
2017-09-15T04:03:34.818Z,95258.28
2017-09-15T04:06:02.336Z,95270.95
2017-09-15T04:08:29.975Z,95268.77
2017-09-15T04:10:57.552Z,95266.64
2017-09-15T04:13:25.310Z,95266.64
2017-09-15T04:15:52.984Z,95263.88
2017-09-15T04:18:20.593Z,95272.33
2017-09-15T04:20:48.298Z,95271.80
2017-09-15T04:23:15.926Z,95266.56
2017-09-15T04:25:43.583Z,95270.54
2017-09-15T04:28:11.314Z,95269.81
2017-09-15T04:30:38.950Z,95276.64
2017-09-15T04:33:07.149Z,95275.45
2017-09-15T04:35:35.296Z,95272.86
2017-09-15T04:38:05.051Z,95278.62
2017-09-15T04:40:33.031Z,95278.46
2017-09-15T04:43:02.797Z,95281.56
2017-09-15T04:45:31.300Z,95283.95
2017-09-15T04:48:03.741Z,95288.47
2017-09-15T04:50:32.288Z,95287.28
2017-09-15T04:52:59.910Z,95289.87
2017-09-15T04:55:27.448Z,95291.13
2017-09-15T04:57:55.021Z,95298.11
2017-09-15T05:00:22.982Z,95301.40
2017-09-15T05:02:50.506Z,95293.56
2017-09-15T05:05:18.066Z,95300.38
2017-09-15T05:07:45.655Z,95303.88
2017-09-15T05:10:13.192Z,95301.13
2017-09-15T05:12:40.732Z,95302.74
2017-09-15T05:15:08.341Z,95305.23
2017-09-15T05:17:35.875Z,95314.61
2017-09-15T05:20:03.721Z,95321.70
2017-09-15T05:22:31.324Z,95318.56
2017-09-15T05:24:58.911Z,95322.92
2017-09-15T05:27:26.917Z,95330.13
2017-09-15T05:29:54.508Z,95330.88
2017-09-15T05:32:22.081Z,95333.56
2017-09-15T05:34:49.718Z,95331.45
2017-09-15T05:37:18.254Z,95325.16
2017-09-15T05:39:45.849Z,95324.42
2017-09-15T05:42:17.330Z,95325.53
2017-09-15T05:44:51.383Z,95319.36
2017-09-15T05:47:19.087Z,95326.33
2017-09-15T05:49:46.621Z,95325.84
2017-09-15T05:52:14.242Z,95320.66
2017-09-15T05:54:41.826Z,95327.98
2017-09-15T05:57:09.470Z,95333.41
2017-09-15T05:59:37.384Z,95337.51
2017-09-15T06:02:04.957Z,95342.66
2017-09-15T06:04:32.496Z,95345.48
2017-09-15T06:07:00.041Z,95347.44
2017-09-15T06:09:27.639Z,95338.09
2017-09-15T06:11:55.186Z,95337.78
2017-09-15T06:14:22.743Z,95334.06
2017-09-15T06:16:50.323Z,95337.20
2017-09-15T06:19:17.865Z,95344.08
2017-09-15T06:21:45.431Z,95346.31
2017-09-15T06:24:13.012Z,95347.52
2017-09-15T06:26:40.828Z,95356.31
2017-09-15T06:29:08.403Z,95361.11
2017-09-15T06:31:36.073Z,95360.14
2017-09-15T06:34:03.652Z,95357.13
2017-09-15T06:36:31.379Z,95361.00
2017-09-15T06:38:59.040Z,95362.50
2017-09-15T06:41:27.174Z,95367.50
2017-09-15T06:43:55.059Z,95364.36
2017-09-15T06:46:22.662Z,95370.09
2017-09-15T06:48:50.418Z,95364.46
2017-09-15T06:51:17.968Z,95362.67
2017-09-15T06:53:45.529Z,95349.88
2017-09-15T06:56:13.080Z,95355.58
2017-09-15T06:58:40.619Z,95361.87
2017-09-15T07:01:08.532Z,95366.14
2017-09-15T07:03:36.093Z,95354.42
2017-09-15T07:06:03.658Z,95357.28
2017-09-15T07:08:31.303Z,95371.73
2017-09-15T07:10:59.074Z,95368.75
2017-09-15T07:13:26.946Z,95372.77
2017-09-15T07:15:54.813Z,95376.14
2017-09-15T07:18:22.431Z,95377.90
2017-09-15T07:20:50.048Z,95382.94
2017-09-15T07:23:17.649Z,95375.81
2017-09-15T07:25:45.243Z,95375.09
2017-09-15T07:28:12.847Z,95375.00
2017-09-15T07:30:40.639Z,95381.47
2017-09-15T07:33:08.261Z,95377.38
2017-09-15T07:35:35.796Z,95377.97
2017-09-15T07:38:03.387Z,95377.16
2017-09-15T07:40:30.972Z,95377.75
2017-09-15T07:42:58.750Z,95372.91
2017-09-15T07:45:26.382Z,95372.20
2017-09-15T07:47:54.134Z,95373.26
2017-09-15T07:50:21.677Z,95376.28
2017-09-15T07:52:49.283Z,95365.52
2017-09-15T07:55:17.070Z,95374.48
2017-09-15T07:57:44.603Z,95365.42
2017-09-15T08:00:12.338Z,95367.42
2017-09-15T08:02:40.104Z,95369.34
2017-09-15T08:05:08.870Z,95368.28
2017-09-15T08:07:36.515Z,95373.09
2017-09-15T08:10:04.291Z,95367.87
2017-09-15T08:12:31.865Z,95365.20
2017-09-15T08:14:59.468Z,95364.38
2017-09-15T08:17:27.045Z,95365.52
2017-09-15T08:19:54.607Z,95366.78
2017-09-15T08:22:22.207Z,95356.53
2017-09-15T08:24:50.039Z,95358.56
2017-09-15T08:27:17.836Z,95355.59
2017-09-15T08:29:45.621Z,95354.71
2017-09-15T08:32:13.302Z,95358.78
2017-09-15T08:34:40.837Z,95355.81
2017-09-15T08:37:08.577Z,95347.91
2017-09-15T08:39:36.333Z,95348.86
2017-09-15T08:42:03.934Z,95339.18
2017-09-15T08:44:32.224Z,95340.64
2017-09-15T08:46:59.861Z,95333.38
2017-09-15T08:49:27.697Z,95341.30
2017-09-15T08:51:55.320Z,95333.02
2017-09-15T08:54:22.953Z,95322.52
2017-09-15T08:56:50.515Z,95327.45
2017-09-15T08:59:18.127Z,95327.52
2017-09-15T09:01:45.751Z,95323.04
2017-09-15T09:04:13.395Z,95324.33
2017-09-15T09:06:40.992Z,95322.53
2017-09-15T09:09:08.646Z,95318.48
2017-09-15T09:11:40.668Z,95309.27
2017-09-15T09:14:08.377Z,95317.78
2017-09-15T09:16:36.519Z,95311.98
2017-09-15T09:19:07.129Z,95313.36
2017-09-15T09:21:34.745Z,95314.45
2017-09-15T09:24:02.294Z,95312.81
2017-09-15T09:26:32.527Z,95304.73
2017-09-15T09:29:00.185Z,95311.95
2017-09-15T09:31:27.763Z,95302.22
2017-09-15T09:33:55.376Z,95301.13
2017-09-15T09:36:22.961Z,95300.50
2017-09-15T09:38:50.758Z,95295.58
2017-09-15T09:41:18.523Z,95301.62
2017-09-15T09:43:46.934Z,95293.70
2017-09-15T09:46:14.500Z,95294.05
2017-09-15T09:48:42.087Z,95287.73
2017-09-15T09:51:09.827Z,95282.44
2017-09-15T09:53:37.559Z,95281.36
2017-09-15T09:56:05.127Z,95283.91
2017-09-15T09:58:32.662Z,95289.05
2017-09-15T10:01:00.278Z,95280.89
2017-09-15T10:03:27.867Z,95274.25
2017-09-15T10:05:55.467Z,95277.73
2017-09-15T10:08:23.104Z,95270.38
2017-09-15T10:10:50.723Z,95275.91
2017-09-15T10:13:18.255Z,95266.87
2017-09-15T10:15:45.870Z,95267.44
2017-09-15T10:18:13.453Z,95268.20
2017-09-15T10:20:40.999Z,95267.71
2017-09-15T10:23:08.610Z,95262.67
2017-09-15T10:25:36.223Z,95261.30
2017-09-15T10:28:03.977Z,95253.31
2017-09-15T10:30:31.549Z,95259.95
2017-09-15T10:32:59.156Z,95249.84
2017-09-15T10:35:26.958Z,95243.13
2017-09-15T10:37:55.211Z,95242.12
2017-09-15T10:40:22.990Z,95229.13
2017-09-15T10:42:50.547Z,95236.34
2017-09-15T10:45:18.126Z,95226.50
2017-09-15T10:47:45.694Z,95219.23
2017-09-15T10:50:13.603Z,95221.10
2017-09-15T10:52:41.179Z,95215.59
2017-09-15T10:55:08.736Z,95218.12
2017-09-15T10:57:41.984Z,95215.95
2017-09-15T11:00:13.521Z,95213.61
2017-09-15T11:02:41.273Z,95214.30
2017-09-15T11:05:09.022Z,95209.77
2017-09-15T11:07:37.566Z,95204.98
2017-09-15T11:10:05.146Z,95201.11
2017-09-15T11:12:32.740Z,95197.92
2017-09-15T11:15:00.335Z,95196.41
2017-09-15T11:17:28.122Z,95190.49
2017-09-15T11:19:55.741Z,95183.66
2017-09-15T11:22:23.339Z,95179.86
2017-09-15T11:24:50.873Z,95185.63
2017-09-15T11:27:18.476Z,95174.63
2017-09-15T11:29:46.038Z,95179.15
2017-09-15T11:32:13.696Z,95180.02
2017-09-15T11:34:41.565Z,95172.07
2017-09-15T11:37:09.158Z,95173.28
2017-09-15T11:39:36.754Z,95176.20
2017-09-15T11:42:04.336Z,95172.30
2017-09-15T11:44:31.911Z,95178.13
2017-09-15T11:46:59.533Z,95171.48
2017-09-15T11:49:27.120Z,95162.04
2017-09-15T11:51:54.858Z,95158.30
2017-09-15T11:54:22.430Z,95157.89
2017-09-15T11:56:51.034Z,95156.26
2017-09-15T11:59:18.575Z,95153.14
2017-09-15T12:01:47.409Z,95151.55
2017-09-15T12:04:19.981Z,95146.52
2017-09-15T12:06:52.383Z,95151.63
2017-09-15T12:09:22.268Z,95144.75
2017-09-15T12:11:49.940Z,95141.81
2017-09-15T12:14:17.519Z,95136.44
2017-09-15T12:16:45.353Z,95135.78
2017-09-15T12:19:12.950Z,95132.41
2017-09-15T12:21:41.245Z,95131.75
2017-09-15T12:24:09.800Z,95130.28
2017-09-15T12:26:37.384Z,95127.38
2017-09-15T12:29:04.972Z,95120.48
2017-09-15T12:31:32.634Z,95119.25
2017-09-15T12:34:05.063Z,95098.55
2017-09-15T12:36:34.130Z,95114.72
2017-09-15T12:39:06.779Z,95113.88
2017-09-15T12:41:36.944Z,95103.28
2017-09-15T12:44:04.925Z,95104.29
2017-09-15T12:46:36.845Z,95098.39
2017-09-15T12:49:04.471Z,95099.53
2017-09-15T12:51:34.923Z,95099.74
2017-09-15T12:54:02.497Z,95096.90
2017-09-15T12:56:33.067Z,95100.66
2017-09-15T12:59:00.690Z,95094.70
2017-09-15T13:01:28.295Z,95093.93
2017-09-15T13:03:55.907Z,95089.75
2017-09-15T13:06:23.566Z,95085.02
2017-09-15T13:08:51.171Z,95085.63
2017-09-15T13:11:18.914Z,95084.71
2017-09-15T13:13:46.454Z,95083.34
2017-09-15T13:16:14.036Z,95073.80
2017-09-15T13:18:41.780Z,95077.34
2017-09-15T13:21:09.335Z,95078.13
2017-09-15T13:23:37.674Z,95070.02
2017-09-15T13:26:05.222Z,95083.73
2017-09-15T13:28:32.992Z,95072.64
2017-09-15T13:31:00.594Z,95075.20
2017-09-15T13:33:28.156Z,95067.16
2017-09-15T13:35:55.748Z,95074.47
2017-09-15T13:38:23.340Z,95068.75
2017-09-15T13:40:50.902Z,95077.53
2017-09-15T13:43:18.690Z,95068.54
2017-09-15T13:45:46.326Z,95065.31
2017-09-15T13:48:13.859Z,95060.74
2017-09-15T13:50:41.633Z,95072.41
2017-09-15T13:53:09.205Z,95069.80
2017-09-15T13:55:36.983Z,95075.44
2017-09-15T13:58:04.526Z,95073.39
2017-09-15T14:00:32.115Z,95069.33
2017-09-15T14:02:59.670Z,95058.44
2017-09-15T14:05:27.252Z,95051.61
2017-09-15T14:07:55.351Z,95052.14
2017-09-15T14:10:24.683Z,95056.98
2017-09-15T14:12:52.388Z,95050.00
2017-09-15T14:15:20.031Z,95058.09
2017-09-15T14:17:48.335Z,95057.61
2017-09-15T14:20:16.323Z,95056.57
2017-09-15T14:22:43.989Z,95054.55
2017-09-15T14:25:11.523Z,95050.89
2017-09-15T14:27:39.073Z,95054.19
2017-09-15T14:30:07.119Z,95052.75
2017-09-15T14:32:34.726Z,95053.06
2017-09-15T14:35:02.589Z,95057.69
2017-09-15T14:37:30.186Z,95056.98
2017-09-15T14:39:57.767Z,95057.62
2017-09-15T14:42:25.990Z,95061.13
2017-09-15T14:44:53.617Z,95062.41
2017-09-15T14:47:21.574Z,95066.83
2017-09-15T14:49:49.365Z,95066.92
2017-09-15T14:52:16.956Z,95064.90
2017-09-15T14:54:45.509Z,95066.00
2017-09-15T14:57:13.367Z,95070.84
2017-09-15T14:59:41.437Z,95067.77
2017-09-15T15:02:10.998Z,95069.20
2017-09-15T15:04:39.030Z,95071.81
2017-09-15T15:07:06.793Z,95073.02
2017-09-15T15:09:34.395Z,95084.81
2017-09-15T15:12:02.005Z,95081.16
2017-09-15T15:14:29.867Z,95086.13
2017-09-15T15:16:57.485Z,95085.92
2017-09-15T15:19:25.403Z,95087.13
2017-09-15T15:21:52.992Z,95090.14
2017-09-15T15:24:20.578Z,95095.41
2017-09-15T15:26:48.965Z,95094.80
2017-09-15T15:29:16.598Z,95093.22
2017-09-15T15:31:44.205Z,95096.88
2017-09-15T15:34:11.842Z,95097.09
2017-09-15T15:36:39.604Z,95096.92
2017-09-15T15:39:07.212Z,95108.31
2017-09-15T15:41:34.773Z,95104.36
2017-09-15T15:44:02.713Z,95109.67
2017-09-15T15:46:30.574Z,95109.36
2017-09-15T15:48:58.182Z,95111.44
2017-09-15T15:51:26.301Z,95116.91
2017-09-15T15:53:54.122Z,95116.55
2017-09-15T15:56:21.913Z,95111.62
2017-09-15T15:58:49.503Z,95120.84
2017-09-15T16:01:17.131Z,95120.52
2017-09-15T16:03:45.090Z,95122.69
2017-09-15T16:06:13.482Z,95128.41
2017-09-15T16:08:41.120Z,95126.27
2017-09-15T16:11:08.800Z,95122.34
2017-09-15T16:13:36.856Z,95128.58
2017-09-15T16:16:04.577Z,95136.80
2017-09-15T16:18:33.729Z,95138.05
2017-09-15T16:21:02.462Z,95142.90
2017-09-15T16:23:30.793Z,95141.53
2017-09-15T16:25:58.479Z,95149.48
2017-09-15T16:28:26.539Z,95149.86
2017-09-15T16:30:54.332Z,95152.89
2017-09-15T16:33:21.983Z,95154.30
2017-09-15T16:35:49.986Z,95163.13
2017-09-15T16:38:23.324Z,95160.67
2017-09-15T16:40:57.492Z,95163.94
2017-09-15T16:43:31.534Z,95168.99
2017-09-15T16:46:04.764Z,95175.53
2017-09-15T16:48:38.130Z,95174.34
2017-09-15T16:51:06.122Z,95177.84
2017-09-15T16:53:33.702Z,95189.47
2017-09-15T16:56:01.401Z,95180.08
2017-09-15T16:58:29.311Z,95184.16
2017-09-15T17:01:00.149Z,95192.92
2017-09-15T17:03:28.069Z,95189.86
2017-09-15T17:05:59.263Z,95199.83
2017-09-15T17:08:27.572Z,95200.30
2017-09-15T17:10:57.419Z,95199.18
2017-09-15T17:13:28.835Z,95208.55
2017-09-15T17:15:56.776Z,95209.26
2017-09-15T17:18:24.398Z,95206.58
2017-09-15T17:20:52.883Z,95216.27
2017-09-15T17:23:20.466Z,95215.06
2017-09-15T17:25:52.358Z,95220.31
2017-09-15T17:28:20.075Z,95224.16
2017-09-15T17:30:48.998Z,95220.83
2017-09-15T17:33:19.410Z,95228.50
2017-09-15T17:35:47.100Z,95231.20
2017-09-15T17:38:14.749Z,95233.48
2017-09-15T17:40:42.311Z,95233.95
2017-09-15T17:43:09.903Z,95233.71
2017-09-15T17:45:37.571Z,95240.13
2017-09-15T17:48:06.334Z,95245.80
2017-09-15T17:50:34.995Z,95252.12
2017-09-15T17:53:02.642Z,95253.23
2017-09-15T17:55:30.266Z,95251.17
2017-09-15T17:57:58.462Z,95250.28
2017-09-15T18:00:26.049Z,95258.59
2017-09-15T18:02:53.685Z,95261.58
2017-09-15T18:05:21.297Z,95265.97
2017-09-15T18:07:48.927Z,95261.02
2017-09-15T18:10:16.555Z,95272.82
2017-09-15T18:12:44.117Z,95269.27
2017-09-15T18:15:11.716Z,95275.00
2017-09-15T18:17:39.679Z,95275.23
2017-09-15T18:20:07.822Z,95279.44
2017-09-15T18:22:35.399Z,95271.44
2017-09-15T18:25:03.970Z,95267.14
2017-09-15T18:27:31.573Z,95267.21
2017-09-15T18:29:59.172Z,95275.47
2017-09-15T18:32:26.770Z,95272.38
2017-09-15T18:34:54.701Z,95272.11
2017-09-15T18:37:22.283Z,95270.26
2017-09-15T18:39:49.934Z,95272.11
2017-09-15T18:42:18.498Z,95278.17
2017-09-15T18:44:46.119Z,95273.98
2017-09-15T18:47:13.743Z,95273.51
2017-09-15T18:49:41.405Z,95274.40
2017-09-15T18:52:09.069Z,95273.81
2017-09-15T18:54:36.757Z,95276.97
2017-09-15T18:57:04.540Z,95271.54
2017-09-15T18:59:32.155Z,95269.83
2017-09-15T19:01:59.831Z,95272.25
2017-09-15T19:04:27.470Z,95281.36
2017-09-15T19:06:55.252Z,95277.82
2017-09-15T19:09:23.695Z,95281.56
2017-09-15T19:11:51.332Z,95286.39
2017-09-15T19:14:19.098Z,95286.05
2017-09-15T19:16:46.787Z,95285.27
2017-09-15T19:19:14.401Z,95286.89
2017-09-15T19:21:41.982Z,95287.48
2017-09-15T19:24:09.749Z,95285.83
2017-09-15T19:26:38.404Z,95284.95
2017-09-15T19:29:06.112Z,95288.64
2017-09-15T19:31:33.756Z,95288.13
2017-09-15T19:34:01.524Z,95289.13
2017-09-15T19:36:29.112Z,95294.91
2017-09-15T19:38:56.784Z,95292.13
2017-09-15T19:41:25.426Z,95298.14
2017-09-15T19:43:54.119Z,95297.55
2017-09-15T19:46:23.395Z,95304.61
2017-09-15T19:48:50.998Z,95307.97
2017-09-15T19:51:19.238Z,95312.09
2017-09-15T19:53:46.873Z,95305.29
2017-09-15T19:56:15.160Z,95307.01
2017-09-15T19:58:42.780Z,95311.02
2017-09-15T20:01:11.049Z,95318.20
2017-09-15T20:03:38.724Z,95314.91
2017-09-15T20:06:06.285Z,95313.23
2017-09-15T20:08:33.889Z,95315.34
2017-09-15T20:11:01.512Z,95307.06
2017-09-15T20:13:29.066Z,95305.05
2017-09-15T20:15:56.660Z,95314.83
2017-09-15T20:18:25.727Z,95308.56
2017-09-15T20:20:53.313Z,95310.77
2017-09-15T20:23:21.470Z,95310.98
2017-09-15T20:25:49.016Z,95320.52
2017-09-15T20:28:16.615Z,95316.42
2017-09-15T20:30:44.238Z,95315.13
2017-09-15T20:33:11.791Z,95320.33
2017-09-15T20:35:39.350Z,95317.02
2017-09-15T20:38:06.971Z,95320.40
2017-09-15T20:40:34.544Z,95321.98
2017-09-15T20:43:02.141Z,95321.50
2017-09-15T20:45:29.736Z,95324.73
2017-09-15T20:47:57.291Z,95323.16
2017-09-15T20:50:24.912Z,95317.72
2017-09-15T20:52:52.572Z,95319.38
2017-09-15T20:55:20.091Z,95318.78
2017-09-15T20:57:47.691Z,95331.30
2017-09-15T21:00:15.397Z,95335.36
2017-09-15T21:02:42.947Z,95329.05
2017-09-15T21:05:10.489Z,95332.74
2017-09-15T21:07:38.112Z,95332.12
2017-09-15T21:10:06.242Z,95328.31
2017-09-15T21:12:34.019Z,95336.16
2017-09-15T21:15:01.616Z,95330.31
2017-09-15T21:17:29.212Z,95335.56
2017-09-15T21:19:56.819Z,95329.82
2017-09-15T21:22:24.429Z,95339.59
2017-09-15T21:24:52.042Z,95335.80
2017-09-15T21:27:19.704Z,95337.92
2017-09-15T21:29:47.335Z,95341.95
2017-09-15T21:32:14.918Z,95327.31
2017-09-15T21:34:42.688Z,95338.22
2017-09-15T21:37:10.289Z,95336.69
2017-09-15T21:39:37.882Z,95335.54
2017-09-15T21:42:05.462Z,95343.37
2017-09-15T21:44:33.059Z,95339.08
2017-09-15T21:47:01.073Z,95340.33
2017-09-15T21:49:31.134Z,95335.67
2017-09-15T21:51:58.784Z,95336.13
2017-09-15T21:54:26.385Z,95331.64
2017-09-15T21:56:53.924Z,95339.44
2017-09-15T21:59:21.470Z,95342.59
2017-09-15T22:01:49.088Z,95336.00
2017-09-15T22:04:39.335Z,95341.34
2017-09-15T22:09:51.282Z,95340.03
2017-09-15T22:12:18.869Z,95345.21
2017-09-15T22:14:46.459Z,95345.05
2017-09-15T22:17:14.020Z,95343.60
2017-09-15T22:19:42.200Z,95342.38
2017-09-15T22:22:09.791Z,95346.86
2017-09-15T22:24:43.435Z,95346.94
2017-09-15T22:27:20.734Z,95354.11
2017-09-15T22:30:05.283Z,95348.23
2017-09-15T22:32:33.017Z,95371.25
2017-09-15T22:35:00.557Z,95382.06
2017-09-15T22:37:28.167Z,95382.82
2017-09-15T22:39:55.740Z,95378.86
2017-09-15T22:42:23.551Z,95366.12
2017-09-15T22:44:51.157Z,95360.53
2017-09-15T22:47:18.768Z,95368.17
2017-09-15T22:49:52.736Z,95356.39
2017-09-15T22:52:20.864Z,95364.12
2017-09-15T22:54:48.505Z,95372.64
2017-09-15T22:57:16.087Z,95371.38
2017-09-15T22:59:43.710Z,95358.38
2017-09-15T23:02:11.297Z,95368.42
2017-09-15T23:04:39.064Z,95376.77
2017-09-15T23:07:06.651Z,95377.19
2017-09-15T23:09:34.284Z,95373.13
2017-09-15T23:12:01.912Z,95368.66
2017-09-15T23:14:29.592Z,95367.48
2017-09-15T23:16:57.229Z,95366.96
2017-09-15T23:19:25.023Z,95377.84
2017-09-15T23:21:52.915Z,95371.27
2017-09-15T23:24:20.977Z,95380.44
2017-09-15T23:26:48.891Z,95380.70
2017-09-15T23:29:16.852Z,95372.91
2017-09-15T23:31:45.113Z,95380.71
2017-09-15T23:34:13.169Z,95373.29
2017-09-15T23:36:40.799Z,95377.42
2017-09-15T23:39:08.445Z,95375.50
2017-09-15T23:41:36.496Z,95367.86
2017-09-15T23:44:04.100Z,95360.20
2017-09-15T23:46:31.787Z,95363.12
2017-09-15T23:48:59.599Z,95364.67
2017-09-15T23:51:27.457Z,95362.89
2017-09-15T23:53:55.091Z,95354.67
2017-09-15T23:56:22.695Z,95357.77
2017-09-15T23:58:50.245Z,95358.91
